createdAt,value
2019-01-10T00:00:08.511Z,20.00
2019-01-10T00:01:08.481Z,20.00
2019-01-10T00:02:08.474Z,20.00
2019-01-10T00:03:08.450Z,20.00
2019-01-10T00:04:08.456Z,20.00
2019-01-10T00:05:08.459Z,20.00
2019-01-10T00:06:08.425Z,20.00
2019-01-10T00:07:08.401Z,20.00
2019-01-10T00:08:08.400Z,20.00
2019-01-10T00:09:08.388Z,20.00
2019-01-10T00:10:08.410Z,20.00
2019-01-10T00:11:08.371Z,20.00
2019-01-10T00:12:08.355Z,20.00
2019-01-10T00:13:08.350Z,20.00
2019-01-10T00:14:08.335Z,16.00
2019-01-10T00:15:08.317Z,20.00
2019-01-10T00:16:08.328Z,20.00
2019-01-10T00:17:08.300Z,20.00
2019-01-10T00:18:08.298Z,16.00
2019-01-10T00:19:08.277Z,20.00
2019-01-10T00:20:08.258Z,20.00
2019-01-10T00:21:08.266Z,16.00
2019-01-10T00:22:08.241Z,16.00
2019-01-10T00:23:08.231Z,16.00
2019-01-10T00:24:08.215Z,16.00
2019-01-10T00:25:08.228Z,0.00
2019-01-10T00:26:08.221Z,0.00
2019-01-10T00:27:08.201Z,0.00
2019-01-10T00:28:08.178Z,0.00
2019-01-10T00:29:08.175Z,0.00
2019-01-10T00:30:08.157Z,0.00
2019-01-10T00:31:08.153Z,0.00
2019-01-10T00:32:08.126Z,0.00
2019-01-10T00:33:08.117Z,0.00
2019-01-10T00:34:08.103Z,0.00
2019-01-10T00:35:08.114Z,0.00
2019-01-10T00:36:08.102Z,0.00
2019-01-10T00:37:08.081Z,0.00
2019-01-10T00:38:08.086Z,0.00
2019-01-10T00:39:08.052Z,0.00
2019-01-10T00:40:08.047Z,0.00
2019-01-10T00:41:08.063Z,0.00
2019-01-10T00:42:08.040Z,0.00
2019-01-10T00:43:08.014Z,0.00
2019-01-10T00:44:07.999Z,0.00
2019-01-10T00:45:07.995Z,0.00
2019-01-10T00:46:07.997Z,0.00
2019-01-10T00:47:07.984Z,0.00
2019-01-10T00:48:07.963Z,0.00
2019-01-10T00:49:07.950Z,0.00
2019-01-10T00:50:07.940Z,0.00
2019-01-10T00:51:07.938Z,0.00
2019-01-10T00:52:07.908Z,0.00
2019-01-10T00:53:07.924Z,0.00
2019-01-10T00:54:07.905Z,0.00
2019-01-10T00:55:07.874Z,0.00
2019-01-10T00:56:07.902Z,0.00
2019-01-10T00:57:07.859Z,0.00
2019-01-10T00:58:07.944Z,0.00
2019-01-10T00:59:07.835Z,0.00
2019-01-10T01:00:07.832Z,0.00
2019-01-10T01:01:07.839Z,0.00
2019-01-10T01:02:07.800Z,0.00
2019-01-10T01:03:07.792Z,0.00
2019-01-10T01:04:07.800Z,0.00
2019-01-10T01:05:07.774Z,0.00
2019-01-10T01:06:07.771Z,0.00
2019-01-10T01:07:07.756Z,0.00
2019-01-10T01:08:07.752Z,0.00
2019-01-10T01:09:07.723Z,0.00
2019-01-10T01:10:07.727Z,0.00
2019-01-10T01:11:07.707Z,0.00
2019-01-10T01:12:07.708Z,0.00
2019-01-10T01:13:07.686Z,0.00
2019-01-10T01:14:07.663Z,0.00
2019-01-10T01:15:07.663Z,0.00
2019-01-10T01:16:07.643Z,0.00
2019-01-10T01:17:07.661Z,0.00
2019-01-10T01:18:07.633Z,0.00
2019-01-10T01:19:07.613Z,0.00
2019-01-10T01:20:07.600Z,0.00
2019-01-10T01:21:07.605Z,0.00
2019-01-10T01:22:07.589Z,0.00
2019-01-10T01:23:07.573Z,0.00
2019-01-10T01:24:07.560Z,0.00
2019-01-10T01:25:07.542Z,0.00
2019-01-10T01:26:07.537Z,0.00
2019-01-10T01:27:07.544Z,0.00
2019-01-10T01:28:07.523Z,0.00
2019-01-10T01:29:07.504Z,0.00
2019-01-10T01:30:07.495Z,0.00
2019-01-10T01:31:07.483Z,0.00
2019-01-10T01:32:07.502Z,0.00
2019-01-10T01:33:07.463Z,0.00
2019-01-10T01:34:07.466Z,0.00
2019-01-10T01:35:07.442Z,0.00
2019-01-10T01:36:07.436Z,0.00
2019-01-10T01:37:07.458Z,0.00
2019-01-10T01:38:07.424Z,0.00
2019-01-10T01:39:07.406Z,0.00
2019-01-10T01:40:07.380Z,0.00
2019-01-10T01:41:07.370Z,0.00
2019-01-10T01:42:07.377Z,0.00
2019-01-10T01:43:07.838Z,0.00
2019-01-10T01:44:07.333Z,0.00
2019-01-10T01:45:07.324Z,0.00
2019-01-10T01:46:07.868Z,0.00
2019-01-10T01:47:07.312Z,0.00
2019-01-10T01:48:07.307Z,0.00
2019-01-10T01:49:07.291Z,0.00
2019-01-10T01:50:07.270Z,0.00
2019-01-10T01:51:07.248Z,0.00
2019-01-10T01:52:07.458Z,0.00
2019-01-10T01:53:07.254Z,0.00
2019-01-10T01:54:07.230Z,0.00
2019-01-10T01:55:07.226Z,0.00
2019-01-10T01:56:07.202Z,0.00
2019-01-10T01:57:07.185Z,0.00
2019-01-10T01:58:07.209Z,0.00
2019-01-10T01:59:07.176Z,0.00
2019-01-10T02:00:07.169Z,0.00
2019-01-10T02:01:07.184Z,0.00
2019-01-10T02:02:07.148Z,0.00
2019-01-10T02:03:07.144Z,0.00
2019-01-10T02:04:07.116Z,0.00
2019-01-10T02:05:07.123Z,0.00
2019-01-10T02:06:07.103Z,0.00
2019-01-10T02:07:07.088Z,0.00
2019-01-10T02:08:07.090Z,0.00
2019-01-10T02:09:07.062Z,0.00
2019-01-10T02:10:07.062Z,0.00
2019-01-10T02:11:07.046Z,0.00
2019-01-10T02:12:07.024Z,0.00
2019-01-10T02:13:16.287Z,0.00
2019-01-10T02:14:08.024Z,0.00
2019-01-10T02:15:07.012Z,0.00
2019-01-10T02:16:06.990Z,0.00
2019-01-10T02:17:06.992Z,0.00
2019-01-10T02:18:06.973Z,0.00
2019-01-10T02:19:06.954Z,0.00
2019-01-10T02:20:06.946Z,0.00
2019-01-10T02:21:06.929Z,0.00
2019-01-10T02:22:06.932Z,0.00
2019-01-10T02:23:06.934Z,0.00
2019-01-10T02:24:06.910Z,0.00
2019-01-10T02:25:06.900Z,0.00
2019-01-10T02:26:06.879Z,0.00
2019-01-10T02:27:06.879Z,0.00
2019-01-10T02:28:06.895Z,0.00
2019-01-10T02:29:06.844Z,0.00
2019-01-10T02:30:06.836Z,0.00
2019-01-10T02:31:06.824Z,0.00
2019-01-10T02:32:06.826Z,0.00
2019-01-10T02:33:06.798Z,0.00
2019-01-10T02:34:06.802Z,0.00
2019-01-10T02:35:06.785Z,0.00
2019-01-10T02:36:06.804Z,0.00
2019-01-10T02:37:06.784Z,0.00
2019-01-10T02:38:06.755Z,0.00
2019-01-10T02:39:06.740Z,0.00
2019-01-10T02:40:06.735Z,0.00
2019-01-10T02:41:06.718Z,0.00
2019-01-10T02:42:06.721Z,0.00
2019-01-10T02:43:06.694Z,0.00
2019-01-10T02:44:06.702Z,0.00
2019-01-10T02:45:06.662Z,0.00
2019-01-10T02:46:06.648Z,0.00
2019-01-10T02:47:06.655Z,0.00
2019-01-10T02:48:06.631Z,0.00
2019-01-10T02:49:06.642Z,0.00
2019-01-10T02:50:06.613Z,0.00
2019-01-10T02:51:06.615Z,0.00
2019-01-10T02:52:06.593Z,0.00
2019-01-10T02:53:06.584Z,0.00
2019-01-10T02:54:06.600Z,0.00
2019-01-10T02:55:06.565Z,0.00
2019-01-10T02:56:06.561Z,0.00
2019-01-10T02:57:06.535Z,0.00
2019-01-10T02:58:06.529Z,0.00
2019-01-10T02:59:06.544Z,0.00
2019-01-10T03:00:06.511Z,0.00
2019-01-10T03:01:06.505Z,0.00
2019-01-10T03:02:06.478Z,0.00
2019-01-10T03:03:06.470Z,0.00
2019-01-10T03:04:06.488Z,0.00
2019-01-10T03:05:06.456Z,0.00
2019-01-10T03:06:06.443Z,0.00
2019-01-10T03:07:06.428Z,0.00
2019-01-10T03:08:06.414Z,0.00
2019-01-10T03:09:06.401Z,0.00
2019-01-10T03:10:06.420Z,0.00
2019-01-10T03:11:06.394Z,0.00
2019-01-10T03:12:06.368Z,0.00
2019-01-10T03:13:06.376Z,0.00
2019-01-10T03:14:06.344Z,0.00
2019-01-10T03:15:06.348Z,0.00
2019-01-10T03:16:06.333Z,0.00
2019-01-10T03:17:06.318Z,0.00
2019-01-10T03:18:06.308Z,0.00
2019-01-10T03:19:06.314Z,0.00
2019-01-10T03:20:06.298Z,0.00
2019-01-10T03:21:06.279Z,0.00
2019-01-10T03:22:06.264Z,0.00
2019-01-10T03:23:06.273Z,0.00
2019-01-10T03:24:06.270Z,0.00
2019-01-10T03:25:06.248Z,0.00
2019-01-10T03:26:06.228Z,0.00
2019-01-10T03:27:06.260Z,0.00
2019-01-10T03:28:06.210Z,0.00
2019-01-10T03:29:06.181Z,0.00
2019-01-10T03:30:06.190Z,0.00
2019-01-10T03:31:06.172Z,0.00
2019-01-10T03:32:06.162Z,0.00
2019-01-10T03:33:06.153Z,0.00
2019-01-10T03:34:06.140Z,0.00
2019-01-10T03:35:06.149Z,0.00
2019-01-10T03:36:06.116Z,0.00
2019-01-10T03:37:06.096Z,0.00
2019-01-10T03:38:06.087Z,0.00
2019-01-10T03:39:06.101Z,0.00
2019-01-10T03:40:06.095Z,0.00
2019-01-10T03:41:06.053Z,0.00
2019-01-10T03:42:06.044Z,0.00
2019-01-10T03:43:06.037Z,0.00
2019-01-10T03:44:06.026Z,0.00
2019-01-10T03:45:06.013Z,0.00
2019-01-10T03:46:06.022Z,0.00
2019-01-10T03:47:05.996Z,0.00
2019-01-10T03:48:05.986Z,0.00
2019-01-10T03:49:05.970Z,0.00
2019-01-10T03:50:05.956Z,0.00
2019-01-10T03:51:05.963Z,0.00
2019-01-10T03:52:05.941Z,0.00
2019-01-10T03:53:05.937Z,0.00
2019-01-10T03:54:05.920Z,0.00
2019-01-10T03:55:05.898Z,0.00
2019-01-10T03:56:05.931Z,0.00
2019-01-10T03:57:05.875Z,0.00
2019-01-10T03:58:05.875Z,0.00
2019-01-10T03:59:05.859Z,0.00
2019-01-10T04:00:05.849Z,0.00
2019-01-10T04:01:05.877Z,0.00
2019-01-10T04:02:05.825Z,0.00
2019-01-10T04:03:05.821Z,0.00
2019-01-10T04:04:05.810Z,0.00
2019-01-10T04:05:05.788Z,0.00
2019-01-10T04:06:05.809Z,0.00
2019-01-10T04:07:05.783Z,0.00
2019-01-10T04:08:05.765Z,0.00
2019-01-10T04:09:05.756Z,0.00
2019-01-10T04:10:05.734Z,0.00
2019-01-10T04:11:05.744Z,0.00
2019-01-10T04:12:05.711Z,0.00
2019-01-10T04:13:05.753Z,0.00
2019-01-10T04:14:05.700Z,0.00
2019-01-10T04:15:05.688Z,0.00
2019-01-10T04:16:05.692Z,0.00
2019-01-10T04:17:05.666Z,0.00
2019-01-10T04:18:05.650Z,0.00
2019-01-10T04:19:05.652Z,0.00
2019-01-10T04:20:05.630Z,0.00
2019-01-10T04:21:05.629Z,0.00
2019-01-10T04:22:05.604Z,0.00
2019-01-10T04:23:05.618Z,0.00
2019-01-10T04:24:05.581Z,0.00
2019-01-10T04:25:05.579Z,0.00
2019-01-10T04:26:05.574Z,0.00
2019-01-10T04:27:05.552Z,0.00
2019-01-10T04:28:05.540Z,0.00
2019-01-10T04:29:05.550Z,0.00
2019-01-10T04:30:05.526Z,0.00
2019-01-10T04:31:05.546Z,0.00
2019-01-10T04:32:05.501Z,0.00
2019-01-10T04:33:05.486Z,0.00
2019-01-10T04:34:05.474Z,0.00
2019-01-10T04:35:05.478Z,0.00
2019-01-10T04:36:05.462Z,0.00
2019-01-10T04:37:05.558Z,0.00
2019-01-10T04:38:05.446Z,0.00
2019-01-10T04:39:05.417Z,0.00
2019-01-10T04:40:05.427Z,0.00
2019-01-10T04:41:05.394Z,0.00
2019-01-10T04:42:05.405Z,0.00
2019-01-10T04:43:05.384Z,0.00
2019-01-10T04:44:07.304Z,0.00
2019-01-10T04:45:05.356Z,0.00
2019-01-10T04:46:05.344Z,0.00
2019-01-10T04:47:05.362Z,0.00
2019-01-10T04:48:05.325Z,0.00
2019-01-10T04:49:05.310Z,0.00
2019-01-10T04:50:05.319Z,0.00
2019-01-10T04:51:05.297Z,0.00
2019-01-10T04:52:05.296Z,0.00
2019-01-10T04:53:05.284Z,0.00
2019-01-10T04:54:05.295Z,0.00
2019-01-10T04:55:05.268Z,0.00
2019-01-10T04:56:05.246Z,0.00
2019-01-10T04:57:05.249Z,0.00
2019-01-10T04:58:05.210Z,0.00
2019-01-10T04:59:05.211Z,0.00
2019-01-10T05:00:05.205Z,0.00
2019-01-10T05:01:05.182Z,0.00
2019-01-10T05:02:05.194Z,0.00
2019-01-10T05:03:05.158Z,0.00
2019-01-10T05:04:05.145Z,0.00
2019-01-10T05:05:05.147Z,0.00
2019-01-10T05:06:05.126Z,0.00
2019-01-10T05:07:05.144Z,0.00
2019-01-10T05:08:05.103Z,0.00
2019-01-10T05:09:05.085Z,0.00
2019-01-10T05:10:05.090Z,0.00
2019-01-10T05:11:05.069Z,0.00
2019-01-10T05:12:05.091Z,0.00
2019-01-10T05:13:05.047Z,0.00
2019-01-10T05:14:05.039Z,0.00
2019-01-10T05:15:05.043Z,0.00
2019-01-10T05:16:05.027Z,0.00
2019-01-10T05:17:05.005Z,0.00
2019-01-10T05:18:05.009Z,0.00
2019-01-10T05:19:04.990Z,0.00
2019-01-10T05:20:04.989Z,0.00
2019-01-10T05:21:04.962Z,0.00
2019-01-10T05:22:04.941Z,0.00
2019-01-10T05:23:04.939Z,0.00
2019-01-10T05:24:04.933Z,0.00
2019-01-10T05:25:04.927Z,0.00
2019-01-10T05:26:04.901Z,0.00
2019-01-10T05:27:04.905Z,0.00
2019-01-10T05:28:04.906Z,0.00
2019-01-10T05:29:04.876Z,0.00
2019-01-10T05:30:04.860Z,0.00
2019-01-10T05:31:04.872Z,0.00
2019-01-10T05:32:04.845Z,0.00
2019-01-10T05:33:04.837Z,0.00
2019-01-10T05:34:04.810Z,0.00
2019-01-10T05:35:04.802Z,0.00
2019-01-10T05:36:04.798Z,0.00
2019-01-10T05:37:06.017Z,0.00
2019-01-10T05:38:04.808Z,0.00
2019-01-10T05:39:04.769Z,0.00
2019-01-10T05:40:04.746Z,0.00
2019-01-10T05:41:04.740Z,0.00
2019-01-10T05:42:04.737Z,0.00
2019-01-10T05:43:04.741Z,0.00
2019-01-10T05:44:04.734Z,0.00
2019-01-10T05:45:04.706Z,0.00
2019-01-10T05:46:04.691Z,0.00
2019-01-10T05:47:04.680Z,0.00
2019-01-10T05:48:04.700Z,0.00
2019-01-10T05:49:04.659Z,0.00
2019-01-10T05:50:04.640Z,0.00
2019-01-10T05:51:04.634Z,0.00
2019-01-10T05:52:04.624Z,0.00
2019-01-10T05:53:04.641Z,0.00
2019-01-10T05:54:04.602Z,0.00
2019-01-10T05:55:04.586Z,0.00
2019-01-10T05:56:04.587Z,0.00
2019-01-10T05:57:04.566Z,0.00
2019-01-10T05:58:04.568Z,0.00
2019-01-10T05:59:04.564Z,0.00
2019-01-10T06:00:04.534Z,0.00
2019-01-10T06:01:04.515Z,0.00
2019-01-10T06:02:04.536Z,0.00
2019-01-10T06:03:04.519Z,0.00
2019-01-10T06:04:04.500Z,0.00
2019-01-10T06:05:04.484Z,0.00
2019-01-10T06:06:04.478Z,0.00
2019-01-10T06:07:04.453Z,0.00
2019-01-10T06:08:04.462Z,0.00
2019-01-10T06:09:04.443Z,0.00
2019-01-10T06:10:04.419Z,0.00
2019-01-10T06:11:04.407Z,0.00
2019-01-10T06:12:04.411Z,0.00
2019-01-10T06:13:04.386Z,0.00
2019-01-10T06:14:04.398Z,0.00
2019-01-10T06:15:04.378Z,0.00
2019-01-10T06:16:04.355Z,0.00
2019-01-10T06:17:04.350Z,0.00
2019-01-10T06:18:04.344Z,0.00
2019-01-10T06:19:04.343Z,0.00
2019-01-10T06:20:04.316Z,0.00
2019-01-10T06:21:04.318Z,0.00
2019-01-10T06:22:04.290Z,0.00
2019-01-10T06:23:04.279Z,0.00
2019-01-10T06:24:04.307Z,0.00
2019-01-10T06:25:04.275Z,0.00
2019-01-10T06:26:04.251Z,0.00
2019-01-10T06:27:04.233Z,0.00
2019-01-10T06:28:04.226Z,0.00
2019-01-10T06:29:04.231Z,0.00
2019-01-10T06:30:04.198Z,0.00
2019-01-10T06:31:04.197Z,0.00
2019-01-10T06:32:04.180Z,0.00
2019-01-10T06:33:04.162Z,0.00
2019-01-10T06:34:06.403Z,0.00
2019-01-10T06:35:04.143Z,0.00
2019-01-10T06:36:04.127Z,0.00
2019-01-10T06:37:04.130Z,0.00
2019-01-10T06:38:04.209Z,0.00
2019-01-10T06:39:04.119Z,0.00
2019-01-10T06:40:04.090Z,0.00
2019-01-10T06:41:04.085Z,0.00
2019-01-10T06:42:04.078Z,0.00
2019-01-10T06:43:04.056Z,0.00
2019-01-10T06:44:04.076Z,0.00
2019-01-10T06:45:04.041Z,0.00
2019-01-10T06:46:04.018Z,0.00
2019-01-10T06:47:04.013Z,0.00
2019-01-10T06:48:04.017Z,0.00
2019-01-10T06:49:04.000Z,0.00
2019-01-10T06:50:04.000Z,4.00
2019-01-10T06:51:03.977Z,0.00
2019-01-10T06:52:03.960Z,4.00
2019-01-10T06:53:03.954Z,0.00
2019-01-10T06:54:03.940Z,0.00
2019-01-10T06:55:03.956Z,4.00
2019-01-10T06:56:03.917Z,4.00
2019-01-10T06:57:03.909Z,4.00
2019-01-10T06:58:03.904Z,0.00
2019-01-10T06:59:03.879Z,4.00
2019-01-10T07:00:03.896Z,4.00
2019-01-10T07:01:03.860Z,4.00
2019-01-10T07:02:03.848Z,8.00
2019-01-10T07:03:03.850Z,8.00
2019-01-10T07:04:03.836Z,12.00
2019-01-10T07:05:03.844Z,8.00
2019-01-10T07:06:03.816Z,12.00
2019-01-10T07:07:03.813Z,12.00
2019-01-10T07:08:03.795Z,12.00
2019-01-10T07:09:03.768Z,12.00
2019-01-10T07:10:03.772Z,16.00
2019-01-10T07:11:03.755Z,16.00
2019-01-10T07:12:03.739Z,20.00
2019-01-10T07:13:03.731Z,28.00
2019-01-10T07:14:03.756Z,36.00
2019-01-10T07:15:03.740Z,36.00
2019-01-10T07:16:03.720Z,40.00
2019-01-10T07:17:03.718Z,36.00
2019-01-10T07:18:03.670Z,44.00
2019-01-10T07:19:03.689Z,44.00
2019-01-10T07:20:03.682Z,52.00
2019-01-10T07:21:03.651Z,52.00
2019-01-10T07:22:03.638Z,56.00
2019-01-10T07:23:03.639Z,52.00
2019-01-10T07:24:03.596Z,48.00
2019-01-10T07:25:03.632Z,44.00
2019-01-10T07:26:03.594Z,52.00
2019-01-10T07:27:03.573Z,68.00
2019-01-10T07:28:03.573Z,68.00
2019-01-10T07:29:03.547Z,64.00
2019-01-10T07:30:03.552Z,60.00
2019-01-10T07:31:03.543Z,60.00
2019-01-10T07:32:03.521Z,60.00
2019-01-10T07:33:03.527Z,52.00
2019-01-10T07:34:03.508Z,52.00
2019-01-10T07:35:03.510Z,52.00
2019-01-10T07:36:03.485Z,56.00
2019-01-10T07:37:12.392Z,64.00
2019-01-10T07:38:04.458Z,64.00
2019-01-10T07:39:03.441Z,60.00
2019-01-10T07:40:03.448Z,56.00
2019-01-10T07:41:03.442Z,64.00
2019-01-10T07:42:03.414Z,52.00
2019-01-10T07:43:03.407Z,56.00
2019-01-10T07:44:03.388Z,68.00
2019-01-10T07:45:03.385Z,76.00
2019-01-10T07:46:03.381Z,88.00
2019-01-10T07:47:03.355Z,100.00
2019-01-10T07:48:03.342Z,92.00
2019-01-10T07:49:03.325Z,92.00
2019-01-10T07:50:03.321Z,108.00
2019-01-10T07:51:03.324Z,120.00
2019-01-10T07:52:03.308Z,124.00
2019-01-10T07:53:03.285Z,128.00
2019-01-10T07:54:03.274Z,132.00
2019-01-10T07:55:03.268Z,120.00
2019-01-10T07:56:03.261Z,124.00
2019-01-10T07:57:03.251Z,128.00
2019-01-10T07:58:03.264Z,120.00
2019-01-10T07:59:03.211Z,132.00
2019-01-10T08:00:03.221Z,124.00
2019-01-10T08:01:03.225Z,124.00
2019-01-10T08:02:03.203Z,136.00
2019-01-10T08:03:03.206Z,160.00
2019-01-10T08:04:03.154Z,152.00
2019-01-10T08:05:03.147Z,128.00
2019-01-10T08:06:04.644Z,128.00
2019-01-10T08:07:03.131Z,144.00
2019-01-10T08:08:03.120Z,184.00
2019-01-10T08:09:03.158Z,200.00
2019-01-10T08:10:03.099Z,232.00
2019-01-10T08:11:03.140Z,252.00
2019-01-10T08:12:03.070Z,204.00
2019-01-10T08:13:03.060Z,184.00
2019-01-10T08:14:03.046Z,176.00
2019-01-10T08:15:11.563Z,152.00
2019-01-10T08:16:04.055Z,144.00
2019-01-10T08:17:03.023Z,148.00
2019-01-10T08:18:03.006Z,148.00
2019-01-10T08:19:03.003Z,140.00
2019-01-10T08:20:03.029Z,164.00
2019-01-10T08:21:02.985Z,180.00
2019-01-10T08:22:03.023Z,192.00
2019-01-10T08:23:02.961Z,168.00
2019-01-10T08:24:02.957Z,172.00
2019-01-10T08:25:02.941Z,188.00
2019-01-10T08:26:02.925Z,192.00
2019-01-10T08:27:02.928Z,220.00
2019-01-10T08:28:02.937Z,248.00
2019-01-10T08:29:02.887Z,240.00
2019-01-10T08:30:02.878Z,248.00
2019-01-10T08:31:02.869Z,252.00
2019-01-10T08:32:04.125Z,252.00
2019-01-10T08:33:02.834Z,256.00
2019-01-10T08:34:02.835Z,256.00
2019-01-10T08:35:02.818Z,264.00
2019-01-10T08:36:02.799Z,268.00
2019-01-10T08:37:02.813Z,240.00
2019-01-10T08:38:02.801Z,272.00
2019-01-10T08:39:02.775Z,308.00
2019-01-10T08:40:02.788Z,320.00
2019-01-10T08:41:02.770Z,320.00
2019-01-10T08:42:02.771Z,332.00
2019-01-10T08:43:02.749Z,320.00
2019-01-10T08:44:02.774Z,368.00
2019-01-10T08:45:02.730Z,384.00
2019-01-10T08:46:02.700Z,360.00
2019-01-10T08:47:02.709Z,352.00
2019-01-10T08:48:02.682Z,304.00
2019-01-10T08:49:02.672Z,300.00
2019-01-10T08:50:02.658Z,260.00
2019-01-10T08:51:02.663Z,264.00
2019-01-10T08:52:02.659Z,268.00
2019-01-10T08:53:02.632Z,288.00
2019-01-10T08:54:02.612Z,280.00
2019-01-10T08:55:02.614Z,308.00
2019-01-10T08:56:02.599Z,356.00
2019-01-10T08:57:02.618Z,416.00
2019-01-10T08:58:02.585Z,432.00
2019-01-10T08:59:02.581Z,408.00
2019-01-10T09:00:02.553Z,400.00
2019-01-10T09:01:02.539Z,384.00
2019-01-10T09:02:02.530Z,396.00
2019-01-10T09:03:02.536Z,408.00
2019-01-10T09:04:02.521Z,460.00
2019-01-10T09:05:02.488Z,496.00
2019-01-10T09:06:08.128Z,560.00
2019-01-10T09:07:03.482Z,620.00
2019-01-10T09:08:02.490Z,692.00
2019-01-10T09:09:02.455Z,772.00
2019-01-10T09:10:02.445Z,760.00
2019-01-10T09:11:02.425Z,752.00
2019-01-10T09:12:02.418Z,752.00
2019-01-10T09:13:02.417Z,708.00
2019-01-10T09:14:04.650Z,700.00
2019-01-10T09:15:02.383Z,680.00
2019-01-10T09:16:02.370Z,676.00
2019-01-10T09:17:02.369Z,704.00
2019-01-10T09:18:02.381Z,704.00
2019-01-10T09:19:02.334Z,704.00
2019-01-10T09:20:02.331Z,660.00
2019-01-10T09:21:04.510Z,668.00
2019-01-10T09:22:02.319Z,752.00
2019-01-10T09:23:02.331Z,808.00
2019-01-10T09:24:02.292Z,784.00
2019-01-10T09:25:02.277Z,876.00
2019-01-10T09:26:02.267Z,900.00
2019-01-10T09:27:02.294Z,936.00
2019-01-10T09:28:02.251Z,956.00
2019-01-10T09:29:02.228Z,944.00
2019-01-10T09:30:02.227Z,876.00
2019-01-10T09:31:02.236Z,772.00
2019-01-10T09:32:02.210Z,712.00
2019-01-10T09:33:02.268Z,700.00
2019-01-10T09:34:02.185Z,732.00
2019-01-10T09:35:02.163Z,644.00
2019-01-10T09:36:02.158Z,668.00
2019-01-10T09:37:03.915Z,724.00
2019-01-10T09:38:02.148Z,712.00
2019-01-10T09:39:02.115Z,792.00
2019-01-10T09:40:02.113Z,716.00
2019-01-10T09:41:02.098Z,652.00
2019-01-10T09:42:02.103Z,656.00
2019-01-10T09:43:02.101Z,748.00
2019-01-10T09:44:02.063Z,840.00
2019-01-10T09:45:02.056Z,712.00
2019-01-10T09:46:02.034Z,708.00
2019-01-10T09:47:02.031Z,692.00
2019-01-10T09:48:02.010Z,680.00
2019-01-10T09:49:02.047Z,620.00
2019-01-10T09:50:02.004Z,732.00
2019-01-10T09:51:02.006Z,728.00
2019-01-10T09:52:01.967Z,620.00
2019-01-10T09:53:01.980Z,700.00
2019-01-10T09:54:01.972Z,720.00
2019-01-10T09:55:01.939Z,720.00
2019-01-10T09:56:01.932Z,772.00
2019-01-10T09:57:01.938Z,788.00
2019-01-10T09:58:01.951Z,800.00
2019-01-10T09:59:01.930Z,756.00
2019-01-10T10:00:01.894Z,780.00
2019-01-10T10:01:01.881Z,784.00
2019-01-10T10:02:01.877Z,744.00
2019-01-10T10:03:01.876Z,708.00
2019-01-10T10:04:01.864Z,696.00
2019-01-10T10:05:01.854Z,656.00
2019-01-10T10:06:07.599Z,680.00
2019-01-10T10:07:02.808Z,752.00
2019-01-10T10:08:01.792Z,688.00
2019-01-10T10:09:01.826Z,692.00
2019-01-10T10:10:01.800Z,728.00
2019-01-10T10:11:01.775Z,748.00
2019-01-10T10:12:01.748Z,768.00
2019-01-10T10:13:01.751Z,744.00
2019-01-10T10:14:01.761Z,732.00
2019-01-10T10:15:01.741Z,780.00
2019-01-10T10:16:01.733Z,892.00
2019-01-10T10:17:01.706Z,876.00
2019-01-10T10:18:01.681Z,872.00
2019-01-10T10:19:01.689Z,860.00
2019-01-10T10:20:01.671Z,796.00
2019-01-10T10:21:01.676Z,812.00
2019-01-10T10:22:01.643Z,840.00
2019-01-10T10:23:01.654Z,796.00
2019-01-10T10:24:01.627Z,788.00
2019-01-10T10:25:01.681Z,800.00
2019-01-10T10:26:01.607Z,788.00
2019-01-10T10:27:01.621Z,780.00
2019-01-10T10:28:01.587Z,764.00
2019-01-10T10:29:01.573Z,896.00
2019-01-10T10:30:01.610Z,924.00
2019-01-10T10:31:01.558Z,948.00
2019-01-10T10:32:01.534Z,980.00
2019-01-10T10:33:01.530Z,992.00
2019-01-10T10:34:01.542Z,744.00
2019-01-10T10:35:01.518Z,652.00
2019-01-10T10:36:01.507Z,720.00
2019-01-10T10:37:01.474Z,724.00
2019-01-10T10:38:01.485Z,760.00
2019-01-10T10:39:01.477Z,956.00
2019-01-10T10:40:01.477Z,964.00
2019-01-10T10:41:01.432Z,940.00
2019-01-10T10:42:01.431Z,1012.00
2019-01-10T10:43:01.414Z,988.00
2019-01-10T10:44:01.435Z,844.00
2019-01-10T10:45:01.424Z,888.00
2019-01-10T10:46:02.013Z,1052.00
2019-01-10T10:47:02.404Z,1020.00
2019-01-10T10:48:01.363Z,1068.00
2019-01-10T10:49:01.345Z,924.00
2019-01-10T10:50:01.368Z,872.00
2019-01-10T10:51:01.321Z,976.00
2019-01-10T10:52:01.316Z,908.00
2019-01-10T10:53:01.321Z,880.00
2019-01-10T10:54:01.321Z,800.00
2019-01-10T10:55:01.294Z,768.00
2019-01-10T10:56:01.280Z,744.00
2019-01-10T10:57:01.273Z,736.00
2019-01-10T10:58:01.251Z,736.00
2019-01-10T10:59:01.250Z,704.00
2019-01-10T11:00:01.259Z,688.00
2019-01-10T11:01:01.222Z,700.00
2019-01-10T11:02:01.210Z,692.00
2019-01-10T11:03:01.199Z,696.00
2019-01-10T11:04:01.215Z,732.00
2019-01-10T11:05:01.199Z,784.00
2019-01-10T11:06:01.171Z,812.00
2019-01-10T11:07:01.157Z,788.00
2019-01-10T11:08:01.156Z,824.00
2019-01-10T11:09:09.134Z,924.00
2019-01-10T11:10:02.136Z,1000.00
2019-01-10T11:11:01.110Z,868.00
2019-01-10T11:12:01.144Z,832.00
2019-01-10T11:13:01.089Z,940.00
2019-01-10T11:14:01.098Z,1104.00
2019-01-10T11:15:01.083Z,940.00
2019-01-10T11:16:01.086Z,880.00
2019-01-10T11:17:01.046Z,896.00
2019-01-10T11:18:01.027Z,980.00
2019-01-10T11:19:01.026Z,968.00
2019-01-10T11:20:01.024Z,928.00
2019-01-10T11:21:01.029Z,852.00
2019-01-10T11:22:01.007Z,896.00
2019-01-10T11:23:10.222Z,920.00
2019-01-10T11:24:01.967Z,832.00
2019-01-10T11:25:00.956Z,876.00
2019-01-10T11:26:00.959Z,1016.00
2019-01-10T11:27:00.928Z,940.00
2019-01-10T11:28:00.914Z,940.00
2019-01-10T11:29:00.914Z,892.00
2019-01-10T11:30:00.900Z,744.00
2019-01-10T11:31:00.902Z,724.00
2019-01-10T11:32:00.878Z,784.00
2019-01-10T11:33:00.904Z,764.00
2019-01-10T11:34:00.848Z,812.00
2019-01-10T11:35:00.846Z,864.00
2019-01-10T11:36:00.850Z,900.00
2019-01-10T11:37:00.827Z,864.00
2019-01-10T11:38:00.815Z,812.00
2019-01-10T11:39:00.838Z,880.00
2019-01-10T11:40:00.787Z,964.00
2019-01-10T11:41:00.790Z,844.00
2019-01-10T11:42:00.770Z,804.00
2019-01-10T11:43:00.755Z,852.00
2019-01-10T11:44:00.772Z,952.00
2019-01-10T11:45:00.738Z,796.00
2019-01-10T11:46:00.730Z,884.00
2019-01-10T11:47:00.715Z,1036.00
2019-01-10T11:48:00.715Z,1032.00
2019-01-10T11:49:00.702Z,968.00
2019-01-10T11:50:00.688Z,912.00
2019-01-10T11:51:00.685Z,1020.00
2019-01-10T11:52:00.658Z,1044.00
2019-01-10T11:53:00.654Z,948.00
2019-01-10T11:54:00.641Z,928.00
2019-01-10T11:55:00.630Z,944.00
2019-01-10T11:56:00.635Z,884.00
2019-01-10T11:57:00.592Z,844.00
2019-01-10T11:58:00.589Z,732.00
2019-01-10T11:59:00.619Z,720.00
2019-01-10T12:00:00.568Z,768.00
2019-01-10T12:01:00.583Z,832.00
2019-01-10T12:02:00.545Z,796.00
2019-01-10T12:03:00.536Z,836.00
2019-01-10T12:04:00.527Z,832.00
2019-01-10T12:05:00.523Z,804.00
2019-01-10T12:06:00.520Z,840.00
2019-01-10T12:07:00.517Z,876.00
2019-01-10T12:08:00.495Z,844.00
2019-01-10T12:09:00.469Z,928.00
2019-01-10T12:10:00.491Z,1072.00
2019-01-10T12:11:00.457Z,1116.00
2019-01-10T12:12:00.458Z,1020.00
2019-01-10T12:13:00.425Z,848.00
2019-01-10T12:14:00.411Z,800.00
2019-01-10T12:15:00.405Z,796.00
2019-01-10T12:16:00.397Z,804.00
2019-01-10T12:17:00.407Z,764.00
2019-01-10T12:18:00.383Z,736.00
2019-01-10T12:19:00.369Z,772.00
2019-01-10T12:20:00.387Z,860.00
2019-01-10T12:21:00.336Z,800.00
2019-01-10T12:22:00.345Z,676.00
2019-01-10T12:23:00.317Z,660.00
2019-01-10T12:24:00.345Z,656.00
2019-01-10T12:25:00.293Z,644.00
2019-01-10T12:26:00.297Z,672.00
2019-01-10T12:27:00.311Z,692.00
2019-01-10T12:28:00.262Z,668.00
2019-01-10T12:29:00.254Z,640.00
2019-01-10T12:30:00.276Z,672.00
2019-01-10T12:31:00.240Z,728.00
2019-01-10T12:32:00.254Z,816.00
2019-01-10T12:33:00.202Z,900.00
2019-01-10T12:34:00.202Z,884.00
2019-01-10T12:35:00.276Z,908.00
2019-01-10T12:36:00.168Z,880.00
2019-01-10T12:37:00.766Z,848.00
2019-01-10T12:38:00.165Z,940.00
2019-01-10T12:39:00.145Z,1000.00
2019-01-10T12:40:00.281Z,896.00
2019-01-10T12:41:00.126Z,848.00
2019-01-10T12:42:00.123Z,828.00
2019-01-10T12:43:00.108Z,796.00
2019-01-10T12:44:00.092Z,796.00
2019-01-10T12:45:00.095Z,928.00
2019-01-10T12:46:00.084Z,964.00
2019-01-10T12:47:00.063Z,876.00
2019-01-10T12:48:01.645Z,856.00
2019-01-10T12:49:00.030Z,736.00
2019-01-10T12:50:00.018Z,556.00
2019-01-10T12:51:00.025Z,476.00
2019-01-10T12:51:59.998Z,428.00
2019-01-10T12:53:00.012Z,412.00
2019-01-10T12:53:59.992Z,388.00
2019-01-10T12:54:59.953Z,424.00